createdAt,value
2019-04-05T00:02:20.072Z,83.70
2019-04-05T00:04:50.468Z,83.90
2019-04-05T00:07:21.745Z,84.50
2019-04-05T00:09:51.928Z,84.30
2019-04-05T00:12:21.905Z,84.00
2019-04-05T00:14:52.698Z,83.60
2019-04-05T00:17:23.864Z,83.70
2019-04-05T00:19:54.095Z,83.40
2019-04-05T00:22:24.238Z,82.80
2019-04-05T00:24:57.290Z,83.00
2019-04-05T00:27:28.515Z,83.10
2019-04-05T00:29:58.664Z,82.70
2019-04-05T00:32:28.673Z,82.70
2019-04-05T00:34:58.916Z,82.50
2019-04-05T00:37:31.448Z,82.40
2019-04-05T00:40:01.552Z,82.60
2019-04-05T00:42:31.599Z,82.50
2019-04-05T00:45:01.804Z,82.40
2019-04-05T00:47:32.976Z,82.30
2019-04-05T00:50:03.808Z,82.10
2019-04-05T00:52:33.946Z,82.20
2019-04-05T00:55:05.328Z,81.90
2019-04-05T00:57:36.523Z,81.50
2019-04-05T01:00:07.804Z,81.20
2019-04-05T01:02:38.484Z,81.10
2019-04-05T01:05:08.976Z,81.20
2019-04-05T01:07:40.379Z,80.60
2019-04-05T01:10:11.128Z,79.80
2019-04-05T01:12:41.981Z,80.00
2019-04-05T01:15:12.481Z,80.10
2019-04-05T01:17:43.721Z,79.90
2019-04-05T01:20:14.641Z,79.10
2019-04-05T01:22:46.593Z,78.80
2019-04-05T01:25:16.798Z,79.00
2019-04-05T01:27:48.579Z,78.60
2019-04-05T01:30:19.082Z,78.50
2019-04-05T01:32:49.354Z,78.80
2019-04-05T01:35:19.614Z,79.50
2019-04-05T01:37:52.569Z,80.30
2019-04-05T01:40:23.253Z,80.30
2019-04-05T01:42:53.671Z,80.30
2019-04-05T01:45:24.090Z,80.10
2019-04-05T01:47:55.184Z,79.20
2019-04-05T01:50:25.841Z,79.10
2019-04-05T01:52:55.921Z,78.70
2019-04-05T01:55:26.134Z,77.90
2019-04-05T01:57:57.419Z,77.20
2019-04-05T02:00:27.596Z,77.30
2019-04-05T02:02:57.932Z,76.50
2019-04-05T02:05:28.318Z,76.40
2019-04-05T02:07:59.649Z,75.70
2019-04-05T02:10:29.924Z,75.70
2019-04-05T02:13:00.102Z,75.40
2019-04-05T02:15:32.608Z,76.00
2019-04-05T02:18:04.088Z,75.90
2019-04-05T02:20:34.259Z,76.10
2019-04-05T02:23:04.451Z,76.50
2019-04-05T02:25:34.650Z,76.20
2019-04-05T02:28:05.719Z,76.80
2019-04-05T02:30:36.064Z,77.60
2019-04-05T02:33:06.704Z,77.80
2019-04-05T02:35:39.042Z,77.70
2019-04-05T02:38:11.409Z,78.00
2019-04-05T02:40:42.957Z,78.40
2019-04-05T02:43:16.182Z,78.10
2019-04-05T02:45:53.314Z,78.10
2019-04-05T02:48:26.705Z,78.30
2019-04-05T02:51:01.754Z,78.40
2019-04-05T02:53:34.415Z,78.50
2019-04-05T02:56:05.772Z,78.50
2019-04-05T02:58:37.056Z,78.50
2019-04-05T03:01:07.748Z,78.40
2019-04-05T03:03:38.298Z,78.70
2019-04-05T03:06:09.974Z,78.20
2019-04-05T03:08:42.302Z,78.00
2019-04-05T03:11:14.388Z,78.00
2019-04-05T03:13:50.472Z,78.40
2019-04-05T03:16:40.210Z,78.80
2019-04-05T03:19:13.640Z,78.70
2019-04-05T03:21:46.863Z,79.10
2019-04-05T03:24:19.840Z,80.00
2019-04-05T03:26:54.034Z,79.90
2019-04-05T03:29:24.694Z,79.90
2019-04-05T03:31:55.065Z,81.10
2019-04-05T03:34:25.863Z,80.20
2019-04-05T03:36:57.082Z,80.00
2019-04-05T03:39:28.805Z,79.30
2019-04-05T03:41:59.291Z,78.60
2019-04-05T03:44:29.795Z,78.50
2019-04-05T03:47:01.135Z,78.60
2019-04-05T03:49:31.593Z,78.40
2019-04-05T03:52:06.812Z,77.60
2019-04-05T03:54:38.077Z,77.70
2019-04-05T03:57:08.791Z,77.80
2019-04-05T03:59:39.707Z,77.70
2019-04-05T04:02:10.835Z,77.00
2019-04-05T04:04:41.897Z,77.00
2019-04-05T04:07:14.021Z,77.10
2019-04-05T04:09:44.123Z,77.00
2019-04-05T04:12:14.700Z,77.30
2019-04-05T04:14:45.338Z,77.10
2019-04-05T04:17:16.912Z,76.70
2019-04-05T04:19:50.532Z,77.00
2019-04-05T04:22:23.489Z,77.40
2019-04-05T04:24:53.682Z,77.20
2019-04-05T04:27:25.306Z,77.10
2019-04-05T04:29:56.263Z,77.00
2019-04-05T04:32:26.737Z,77.30
2019-04-05T04:34:57.422Z,77.60
2019-04-05T04:37:29.574Z,78.10
2019-04-05T04:39:59.766Z,78.00
2019-04-05T04:42:30.454Z,78.00
2019-04-05T04:45:11.416Z,78.00
2019-04-05T04:47:35.845Z,77.80
2019-04-05T04:50:07.755Z,77.90
2019-04-05T04:52:38.191Z,77.80
2019-04-05T04:55:08.756Z,77.40
2019-04-05T04:57:45.794Z,77.10
2019-04-05T05:00:16.464Z,77.20
2019-04-05T05:02:46.922Z,77.50
2019-04-05T05:05:19.074Z,77.80
2019-04-05T05:07:52.154Z,77.90
2019-04-05T05:10:22.734Z,77.90
2019-04-05T05:12:52.957Z,78.30
2019-04-05T05:15:23.199Z,78.60
2019-04-05T05:17:58.870Z,78.40
2019-04-05T05:20:28.090Z,78.50
2019-04-05T05:22:58.706Z,78.10
2019-04-05T05:25:28.985Z,77.60
2019-04-05T05:28:07.008Z,77.60
2019-04-05T05:30:36.953Z,77.90
2019-04-05T05:33:07.563Z,78.30
2019-04-05T05:35:37.835Z,78.80
2019-04-05T05:38:10.895Z,78.50
2019-04-05T05:40:42.122Z,78.00
2019-04-05T05:43:12.200Z,78.00
2019-04-05T05:45:42.260Z,78.40
2019-04-05T05:48:15.170Z,77.50
2019-04-05T05:50:45.344Z,77.60
2019-04-05T05:53:15.665Z,77.20
2019-04-05T05:55:45.626Z,77.80
2019-04-05T05:58:25.365Z,77.30
2019-04-05T06:00:54.946Z,77.20
2019-04-05T06:03:25.116Z,77.20
2019-04-05T06:06:04.350Z,76.70
2019-04-05T06:08:29.096Z,76.80
2019-04-05T06:10:58.395Z,77.30
2019-04-05T06:13:28.585Z,77.00
2019-04-05T06:15:58.647Z,77.20
2019-04-05T06:18:31.313Z,77.00
2019-04-05T06:21:03.469Z,76.90
2019-04-05T06:23:34.266Z,76.50
2019-04-05T06:26:05.178Z,76.20
2019-04-05T06:28:35.313Z,76.30
2019-04-05T06:31:05.902Z,76.10
2019-04-05T06:33:36.544Z,75.50
2019-04-05T06:36:06.636Z,75.60
2019-04-05T06:38:36.818Z,75.30
2019-04-05T06:41:07.821Z,75.50
2019-04-05T06:43:37.954Z,75.80
2019-04-05T06:46:10.811Z,76.10
2019-04-05T06:48:41.028Z,76.30
2019-04-05T06:51:11.572Z,76.70
2019-04-05T06:53:41.898Z,77.10
2019-04-05T06:56:11.898Z,76.60
2019-04-05T06:58:42.063Z,76.20
2019-04-05T07:01:12.115Z,75.90
2019-04-05T07:03:42.760Z,76.70
2019-04-05T07:06:13.311Z,76.00
2019-04-05T07:08:53.153Z,76.40
2019-04-05T07:11:14.963Z,76.10
2019-04-05T07:13:45.042Z,76.00
2019-04-05T07:16:15.087Z,75.30
2019-04-05T07:18:45.866Z,75.30
2019-04-05T07:21:17.472Z,76.00
2019-04-05T07:23:47.803Z,74.90
2019-04-05T07:26:20.979Z,74.30
2019-04-05T07:28:51.190Z,74.40
2019-04-05T07:31:21.812Z,74.70
2019-04-05T07:33:52.551Z,74.60
2019-04-05T07:36:23.599Z,74.00
2019-04-05T07:38:54.251Z,73.80
2019-04-05T07:41:25.882Z,73.30
2019-04-05T07:43:56.590Z,72.50
2019-04-05T07:46:27.153Z,70.70
2019-04-05T07:48:57.921Z,70.10
2019-04-05T07:51:28.535Z,69.40
2019-04-05T07:53:59.271Z,68.00
2019-04-05T07:56:31.132Z,68.20
2019-04-05T07:59:01.755Z,67.50
2019-04-05T08:01:32.393Z,67.60
2019-04-05T08:04:03.178Z,66.80
2019-04-05T08:06:37.667Z,66.00
2019-04-05T08:09:11.065Z,65.70
2019-04-05T08:11:43.939Z,65.90
2019-04-05T08:14:18.163Z,63.70
2019-04-05T08:16:50.273Z,61.90
2019-04-05T08:19:21.015Z,61.50
2019-04-05T08:21:51.653Z,60.30
2019-04-05T08:24:22.295Z,58.60
2019-04-05T08:26:54.124Z,56.80
2019-04-05T08:29:25.007Z,55.60
2019-04-05T08:31:55.720Z,53.80
2019-04-05T08:34:26.358Z,53.50
2019-04-05T08:36:58.098Z,51.50
2019-04-05T08:39:28.752Z,48.90
2019-04-05T08:41:59.480Z,46.80
2019-04-05T08:44:30.224Z,43.70
2019-04-05T08:47:01.863Z,41.30
2019-04-05T08:49:32.618Z,40.00
2019-04-05T08:52:03.129Z,40.10
2019-04-05T08:54:36.616Z,39.00
2019-04-05T08:57:07.356Z,39.90
2019-04-05T08:59:38.111Z,40.00
2019-04-05T09:02:08.726Z,41.00
2019-04-05T09:04:39.374Z,42.50
2019-04-05T09:07:10.999Z,44.00
2019-04-05T09:09:41.655Z,45.10
2019-04-05T09:12:12.331Z,46.60
2019-04-05T09:14:43.057Z,47.70
2019-04-05T09:17:25.582Z,47.70
2019-04-05T09:19:56.361Z,48.60
2019-04-05T09:22:27.039Z,49.60
2019-04-05T09:24:57.808Z,49.70
2019-04-05T09:27:29.410Z,50.20
2019-04-05T09:30:00.067Z,49.70
2019-04-05T09:32:30.717Z,49.20
2019-04-05T09:35:01.445Z,46.90
2019-04-05T09:37:33.158Z,46.10
2019-04-05T09:40:05.095Z,46.70
2019-04-05T09:42:35.748Z,45.90
2019-04-05T09:45:07.663Z,46.50
2019-04-05T09:47:39.276Z,47.40
2019-04-05T09:50:10.736Z,45.20
2019-04-05T09:52:41.452Z,46.00
2019-04-05T09:55:12.227Z,46.80
2019-04-05T09:57:43.907Z,45.90
2019-04-05T10:00:20.582Z,46.60
2019-04-05T10:02:51.101Z,45.70
2019-04-05T10:05:21.793Z,45.70
2019-04-05T10:07:55.193Z,45.70
2019-04-05T10:10:25.463Z,47.80
2019-04-05T10:12:57.295Z,43.00
2019-04-05T10:15:28.069Z,44.00
2019-04-05T10:17:58.764Z,43.30
2019-04-05T10:20:29.469Z,43.00
2019-04-05T10:22:59.996Z,43.40
2019-04-05T10:25:30.708Z,43.40
2019-04-05T10:28:01.375Z,42.70
2019-04-05T10:30:32.187Z,42.40
2019-04-05T10:33:02.809Z,42.10
2019-04-05T10:35:33.468Z,41.90
2019-04-05T10:38:04.209Z,41.80
2019-04-05T10:40:34.970Z,40.70
2019-04-05T10:43:07.629Z,40.20
2019-04-05T10:45:38.277Z,40.90
2019-04-05T10:48:11.179Z,41.40
2019-04-05T10:50:41.848Z,41.60
2019-04-05T10:53:12.500Z,42.80
2019-04-05T10:55:43.370Z,43.80
2019-04-05T10:58:16.159Z,43.20
2019-04-05T11:00:47.007Z,43.50
2019-04-05T11:03:17.631Z,44.40
2019-04-05T11:05:49.408Z,44.70
2019-04-05T11:08:20.385Z,44.60
2019-04-05T11:10:51.031Z,45.40
2019-04-05T11:13:21.637Z,45.30
2019-04-05T11:15:52.272Z,45.10
2019-04-05T11:18:23.082Z,44.30
2019-04-05T11:20:53.695Z,44.70
2019-04-05T11:23:24.217Z,45.10
2019-04-05T11:25:54.926Z,44.80
2019-04-05T11:28:25.522Z,45.10
2019-04-05T11:30:56.228Z,45.10
2019-04-05T11:33:26.814Z,45.50
2019-04-05T11:35:58.062Z,44.00
2019-04-05T11:38:29.522Z,43.80
2019-04-05T11:41:00.651Z,44.00
2019-04-05T11:43:34.084Z,44.30
2019-04-05T11:46:05.010Z,44.50
2019-04-05T11:48:41.812Z,44.80
2019-04-05T11:51:14.475Z,44.50
2019-04-05T11:53:45.320Z,44.90
2019-04-05T11:56:19.742Z,45.90
2019-04-05T11:58:49.602Z,44.20
2019-04-05T12:01:24.629Z,46.10
2019-04-05T12:03:55.246Z,45.60
2019-04-05T12:06:25.848Z,46.60
2019-04-05T12:08:56.480Z,45.20
2019-04-05T12:11:27.204Z,45.50
2019-04-05T12:13:57.873Z,44.80
2019-04-05T12:16:29.659Z,46.10
2019-04-05T12:19:00.251Z,43.50
2019-04-05T12:21:32.617Z,43.20
2019-04-05T12:24:03.454Z,43.20
2019-04-05T12:26:35.261Z,43.90
2019-04-05T12:29:06.060Z,43.10
2019-04-05T12:31:36.695Z,42.40
2019-04-05T12:34:07.468Z,43.20
2019-04-05T12:36:39.185Z,41.50
2019-04-05T12:39:09.704Z,41.80
2019-04-05T12:41:40.939Z,42.10
2019-04-05T12:44:15.125Z,42.10
2019-04-05T12:46:46.280Z,42.30
2019-04-05T12:49:16.924Z,41.50
2019-04-05T12:51:47.803Z,43.30
2019-04-05T12:54:18.320Z,43.70
2019-04-05T12:56:50.191Z,42.50
2019-04-05T12:59:20.885Z,41.80
2019-04-05T13:01:51.648Z,43.00
2019-04-05T13:04:22.181Z,42.40
2019-04-05T13:06:53.703Z,43.20
2019-04-05T13:09:24.703Z,43.80
2019-04-05T13:11:57.274Z,42.50
2019-04-05T13:14:27.952Z,42.70
2019-04-05T13:17:02.632Z,43.20
2019-04-05T13:19:31.949Z,43.40
2019-04-05T13:22:03.498Z,44.70
2019-04-05T13:24:34.200Z,43.90
2019-04-05T13:27:05.445Z,43.90
2019-04-05T13:29:35.948Z,45.00
2019-04-05T13:32:06.556Z,44.30
2019-04-05T13:34:37.142Z,45.20
2019-04-05T13:37:19.539Z,43.90
2019-04-05T13:39:40.200Z,45.00
2019-04-05T13:42:10.912Z,44.60
2019-04-05T13:44:42.593Z,46.20
2019-04-05T13:47:13.366Z,46.00
2019-04-05T13:49:43.890Z,46.20
2019-04-05T13:52:14.535Z,44.50
2019-04-05T13:54:45.253Z,43.60
2019-04-05T13:57:16.194Z,44.30
2019-04-05T13:59:46.799Z,44.90
2019-04-05T14:02:20.549Z,45.10
2019-04-05T14:04:53.301Z,44.60
2019-04-05T14:07:24.535Z,45.00
2019-04-05T14:09:54.235Z,46.10
2019-04-05T14:12:25.867Z,47.10
2019-04-05T14:14:56.373Z,47.10
2019-04-05T14:17:28.100Z,47.00
2019-04-05T14:19:58.636Z,47.50
2019-04-05T14:22:29.375Z,48.00
2019-04-05T14:25:00.077Z,48.40
2019-04-05T14:27:34.796Z,47.50
2019-04-05T14:30:05.306Z,47.50
2019-04-05T14:32:35.948Z,47.20
2019-04-05T14:35:08.369Z,47.20
2019-04-05T14:37:39.083Z,47.10
2019-04-05T14:40:10.292Z,47.70
2019-04-05T14:42:42.599Z,48.90
2019-04-05T14:45:14.236Z,48.00
2019-04-05T14:47:44.877Z,48.30
2019-04-05T14:50:16.226Z,48.50
2019-04-05T14:52:49.463Z,48.40
2019-04-05T14:55:19.169Z,47.60
2019-04-05T14:57:51.011Z,47.70
2019-04-05T15:00:21.715Z,48.10
2019-04-05T15:02:52.340Z,48.70
2019-04-05T15:05:22.850Z,47.40
2019-04-05T15:07:55.062Z,47.50
2019-04-05T15:10:26.229Z,47.70
2019-04-05T15:12:57.114Z,47.00
2019-04-05T15:15:27.633Z,47.40
2019-04-05T15:17:59.255Z,47.50
2019-04-05T15:20:29.903Z,47.60
2019-04-05T15:23:00.610Z,47.40
2019-04-05T15:25:31.145Z,47.50
2019-04-05T15:28:02.991Z,48.20
2019-04-05T15:30:33.529Z,48.20
2019-04-05T15:33:04.691Z,48.60
2019-04-05T15:35:35.275Z,49.40
2019-04-05T15:38:06.943Z,49.80
2019-04-05T15:40:37.575Z,50.40
2019-04-05T15:43:08.420Z,50.40
2019-04-05T15:45:42.581Z,48.60
2019-04-05T15:48:13.252Z,48.40
2019-04-05T15:50:43.786Z,48.60
2019-04-05T15:53:14.410Z,48.60
2019-04-05T15:55:44.933Z,48.70
2019-04-05T15:58:15.691Z,48.70
2019-04-05T16:00:46.462Z,49.70
2019-04-05T16:03:17.515Z,49.60
2019-04-05T16:05:48.368Z,50.00
2019-04-05T16:08:20.057Z,50.20
2019-04-05T16:10:50.596Z,51.30
2019-04-05T16:13:21.320Z,51.70
2019-04-05T16:15:51.863Z,51.70
2019-04-05T16:18:23.491Z,52.70
2019-04-05T16:20:54.054Z,51.90
2019-04-05T16:23:24.790Z,52.50
2019-04-05T16:25:55.304Z,52.80
2019-04-05T16:28:27.138Z,53.30
2019-04-05T16:30:58.760Z,53.30
2019-04-05T16:33:29.387Z,52.70
2019-04-05T16:35:59.914Z,52.90
2019-04-05T16:38:30.561Z,53.50
2019-04-05T16:41:01.198Z,54.10
2019-04-05T16:43:31.915Z,55.80
2019-04-05T16:46:02.557Z,57.20
2019-04-05T16:48:33.337Z,57.90
2019-04-05T16:51:04.045Z,58.10
2019-04-05T16:53:35.078Z,58.60
2019-04-05T16:56:05.833Z,59.20
2019-04-05T16:58:36.644Z,59.50
2019-04-05T17:01:07.333Z,60.00
2019-04-05T17:03:38.071Z,61.60
2019-04-05T17:06:08.632Z,62.50
2019-04-05T17:08:39.350Z,63.10
2019-04-05T17:11:09.912Z,63.70
2019-04-05T17:13:40.563Z,64.60
2019-04-05T17:16:11.073Z,63.90
2019-04-05T17:18:41.823Z,64.70
2019-04-05T17:21:12.634Z,64.40
2019-04-05T17:23:43.375Z,64.10
2019-04-05T17:26:13.912Z,64.20
2019-04-05T17:28:45.619Z,64.60
2019-04-05T17:31:16.158Z,64.80
2019-04-05T17:33:46.965Z,64.80
2019-04-05T17:36:17.522Z,65.20
2019-04-05T17:38:48.159Z,65.30
2019-04-05T17:41:18.802Z,65.10
2019-04-05T17:43:49.647Z,64.70
2019-04-05T17:46:22.451Z,64.70
2019-04-05T17:48:54.400Z,64.70
2019-04-05T17:51:25.225Z,65.20
2019-04-05T17:53:55.988Z,65.90
2019-04-05T17:56:27.155Z,66.20
2019-04-05T17:58:58.244Z,66.80
2019-04-05T18:01:29.064Z,67.00
2019-04-05T18:03:59.706Z,67.30
2019-04-05T18:06:31.491Z,67.50
2019-04-05T18:09:03.470Z,68.00
2019-04-05T18:11:35.444Z,68.20
2019-04-05T18:14:06.104Z,69.00
2019-04-05T18:16:36.804Z,69.50
2019-04-05T18:19:08.001Z,70.00
2019-04-05T18:21:39.103Z,70.40
2019-04-05T18:24:10.968Z,70.40
2019-04-05T18:26:42.119Z,70.70
2019-04-05T18:29:12.915Z,70.90
2019-04-05T18:31:43.464Z,70.80
2019-04-05T18:34:14.100Z,71.10
2019-04-05T18:36:44.814Z,71.40
2019-04-05T18:39:15.563Z,71.70
2019-04-05T18:41:46.117Z,71.90
2019-04-05T18:44:16.796Z,71.40
2019-04-05T18:46:49.500Z,72.90
2019-04-05T18:49:21.347Z,71.80
2019-04-05T18:51:51.908Z,71.30
2019-04-05T18:54:22.526Z,71.40
2019-04-05T18:56:53.652Z,71.90
2019-04-05T18:59:24.454Z,72.00
2019-04-05T19:01:55.090Z,72.10
2019-04-05T19:04:25.964Z,71.90
2019-04-05T19:06:57.714Z,71.70
2019-04-05T19:09:28.390Z,71.80
2019-04-05T19:11:59.110Z,71.80
2019-04-05T19:14:29.774Z,71.80
2019-04-05T19:17:00.845Z,71.80
2019-04-05T19:19:31.601Z,72.30
2019-04-05T19:22:02.250Z,72.70
2019-04-05T19:24:32.520Z,73.00
2019-04-05T19:27:04.292Z,73.30
2019-04-05T19:29:35.238Z,73.60
2019-04-05T19:49:54.242Z,77.70
2019-04-05T19:52:24.886Z,76.90
2019-04-05T19:54:55.549Z,76.90
2019-04-05T19:57:27.306Z,76.70
2019-04-05T19:59:58.131Z,76.70
2019-04-05T20:02:28.786Z,76.50
2019-04-05T20:05:00.694Z,76.30
2019-04-05T20:07:32.810Z,76.10
2019-04-05T20:10:03.985Z,76.10
2019-04-05T20:12:34.870Z,75.90
2019-04-05T20:15:07.419Z,75.70
2019-04-05T20:17:39.686Z,75.60
2019-04-05T20:20:11.014Z,75.60
2019-04-05T20:22:42.108Z,75.50
2019-04-05T20:25:13.131Z,75.50
2019-04-05T20:27:44.961Z,75.60
2019-04-05T20:30:15.886Z,75.40
2019-04-05T20:32:46.527Z,75.20
2019-04-05T20:35:17.213Z,75.60
2019-04-05T20:37:47.797Z,75.90
2019-04-05T20:40:18.455Z,75.90
2019-04-05T20:42:49.047Z,75.70
2019-04-05T20:45:20.011Z,75.70
2019-04-05T20:47:52.666Z,75.50
2019-04-05T20:50:23.345Z,75.60
2019-04-05T20:52:53.897Z,75.60
2019-04-05T20:55:24.643Z,75.70
2019-04-05T20:57:55.822Z,75.30
2019-04-05T21:00:26.630Z,75.30
2019-04-05T21:02:57.168Z,75.30
2019-04-05T21:05:27.827Z,75.10
2019-04-05T21:07:59.543Z,74.90
2019-04-05T21:10:30.303Z,74.80
2019-04-05T21:13:00.927Z,75.20
2019-04-05T21:15:31.627Z,74.70
2019-04-05T21:18:04.539Z,73.00
2019-04-05T21:20:35.286Z,71.10
2019-04-05T21:23:05.838Z,69.90
2019-04-05T21:25:36.563Z,69.00
2019-04-05T21:28:09.327Z,68.80
2019-04-05T21:30:40.145Z,68.40
2019-04-05T21:33:10.679Z,66.80
2019-04-05T21:35:41.413Z,66.00
2019-04-05T21:38:13.071Z,64.90
2019-04-05T21:40:43.825Z,65.00
2019-04-05T21:43:14.359Z,64.80
2019-04-05T21:45:45.008Z,64.50
2019-04-05T21:48:17.527Z,64.60
2019-04-05T21:50:48.275Z,64.80
2019-04-05T21:53:20.311Z,63.30
2019-04-05T21:55:51.064Z,62.60
2019-04-05T21:58:22.721Z,61.90
2019-04-05T22:00:55.072Z,61.10
2019-04-05T22:03:26.479Z,60.90
2019-04-05T22:05:57.282Z,61.00
2019-04-05T22:08:28.995Z,60.80
2019-04-05T22:10:59.715Z,61.00
2019-04-05T22:13:30.225Z,60.80
2019-04-05T22:16:00.856Z,61.20
2019-04-05T22:18:32.592Z,61.20
2019-04-05T22:21:03.298Z,61.20
2019-04-05T22:23:33.933Z,62.00
2019-04-05T22:26:04.669Z,61.80
2019-04-05T22:28:34.626Z,62.00
2019-04-05T22:31:05.308Z,62.10
2019-04-05T22:33:35.952Z,62.60
2019-04-05T22:36:06.692Z,62.20
2019-04-05T22:38:37.221Z,62.40
2019-04-05T22:41:07.874Z,62.20
2019-04-05T22:43:38.591Z,62.40
2019-04-05T22:46:09.203Z,62.50
2019-04-05T22:48:40.672Z,62.50
2019-04-05T22:51:11.314Z,62.60
2019-04-05T22:53:41.965Z,62.60
2019-04-05T22:56:12.687Z,62.50
2019-04-05T22:58:43.223Z,62.70
2019-04-05T23:01:13.909Z,62.70
2019-04-05T23:03:44.434Z,62.30
2019-04-05T23:06:15.117Z,62.00
2019-04-05T23:08:45.659Z,61.70
2019-04-05T23:11:16.380Z,61.60
2019-04-05T23:13:46.980Z,62.00
2019-04-05T23:16:17.625Z,62.10
2019-04-05T23:18:47.627Z,62.00
2019-04-05T23:21:18.239Z,61.80
2019-04-05T23:23:48.306Z,62.00
2019-04-05T23:26:18.942Z,60.90
2019-04-05T23:28:49.479Z,60.80
2019-04-05T23:31:20.256Z,60.90
2019-04-05T23:33:50.760Z,60.90
2019-04-05T23:36:21.401Z,60.60
2019-04-05T23:38:51.922Z,60.30
2019-04-05T23:41:22.661Z,60.10
2019-04-05T23:43:53.201Z,59.00
2019-04-05T23:46:23.944Z,58.50
2019-04-05T23:48:55.449Z,58.60
2019-04-05T23:51:26.246Z,58.90
2019-04-05T23:53:56.856Z,58.90
2019-04-05T23:56:27.494Z,58.90
2019-04-05T23:58:58.147Z,59.10
